sensor_id;sensor_type;location;lat;lon;timestamp;temperature;humidity
21115;DHT22;10715;48.546;9.896;2023-06-26T00:00:04;14.80;99.90
21115;DHT22;10715;48.546;9.896;2023-06-26T00:02:31;14.80;99.90
21115;DHT22;10715;48.546;9.896;2023-06-26T00:04:58;14.70;99.90
21115;DHT22;10715;48.546;9.896;2023-06-26T00:07:24;14.70;99.90
21115;DHT22;10715;48.546;9.896;2023-06-26T00:09:49;14.60;99.90
21115;DHT22;10715;48.546;9.896;2023-06-26T00:12:15;14.60;99.90
21115;DHT22;10715;48.546;9.896;2023-06-26T00:14:41;14.60;99.90
21115;DHT22;10715;48.546;9.896;2023-06-26T00:17:07;14.50;99.90
21115;DHT22;10715;48.546;9.896;2023-06-26T00:19:32;14.50;99.90
21115;DHT22;10715;48.546;9.896;2023-06-26T00:21:58;14.40;99.90
21115;DHT22;10715;48.546;9.896;2023-06-26T00:24:24;14.40;99.90
21115;DHT22;10715;48.546;9.896;2023-06-26T00:26:50;14.40;99.90
21115;DHT22;10715;48.546;9.896;2023-06-26T00:29:16;14.30;99.90
21115;DHT22;10715;48.546;9.896;2023-06-26T00:31:42;14.30;99.90
21115;DHT22;10715;48.546;9.896;2023-06-26T00:34:07;14.30;99.90
21115;DHT22;10715;48.546;9.896;2023-06-26T00:36:33;14.20;99.90
21115;DHT22;10715;48.546;9.896;2023-06-26T00:38:59;14.20;99.90
21115;DHT22;10715;48.546;9.896;2023-06-26T00:41:25;14.20;99.90
21115;DHT22;10715;48.546;9.896;2023-06-26T00:43:50;14.10;99.90
21115;DHT22;10715;48.546;9.896;2023-06-26T00:46:17;14.10;99.90
21115;DHT22;10715;48.546;9.896;2023-06-26T00:48:44;14.10;99.90
21115;DHT22;10715;48.546;9.896;2023-06-26T00:51:11;14.10;99.90
21115;DHT22;10715;48.546;9.896;2023-06-26T00:53:37;14.00;99.90
21115;DHT22;10715;48.546;9.896;2023-06-26T00:56:03;14.00;99.90
21115;DHT22;10715;48.546;9.896;2023-06-26T00:58:30;13.90;99.90
21115;DHT22;10715;48.546;9.896;2023-06-26T01:00:56;13.90;99.90
21115;DHT22;10715;48.546;9.896;2023-06-26T01:03:23;13.90;99.90
21115;DHT22;10715;48.546;9.896;2023-06-26T01:05:52;13.80;99.90
21115;DHT22;10715;48.546;9.896;2023-06-26T01:08:18;13.80;99.90
21115;DHT22;10715;48.546;9.896;2023-06-26T01:10:45;13.70;99.90
21115;DHT22;10715;48.546;9.896;2023-06-26T01:13:15;13.70;99.90
21115;DHT22;10715;48.546;9.896;2023-06-26T01:15:41;13.60;99.90
21115;DHT22;10715;48.546;9.896;2023-06-26T01:18:07;13.60;99.90
21115;DHT22;10715;48.546;9.896;2023-06-26T01:20:38;13.60;99.90
21115;DHT22;10715;48.546;9.896;2023-06-26T01:23:17;13.60;99.90
21115;DHT22;10715;48.546;9.896;2023-06-26T01:26:09;13.50;99.90
21115;DHT22;10715;48.546;9.896;2023-06-26T01:28:38;13.50;99.90
21115;DHT22;10715;48.546;9.896;2023-06-26T01:31:05;13.50;99.90
21115;DHT22;10715;48.546;9.896;2023-06-26T01:33:32;13.40;99.90
21115;DHT22;10715;48.546;9.896;2023-06-26T01:35:58;13.40;99.90
21115;DHT22;10715;48.546;9.896;2023-06-26T01:38:24;13.30;99.90
21115;DHT22;10715;48.546;9.896;2023-06-26T01:40:51;13.30;99.90
21115;DHT22;10715;48.546;9.896;2023-06-26T01:46:23;13.20;99.90
21115;DHT22;10715;48.546;9.896;2023-06-26T01:51:44;13.20;99.90
21115;DHT22;10715;48.546;9.896;2023-06-26T01:54:16;13.10;99.90
21115;DHT22;10715;48.546;9.896;2023-06-26T01:56:45;13.10;99.90
21115;DHT22;10715;48.546;9.896;2023-06-26T01:59:12;13.10;99.90
21115;DHT22;10715;48.546;9.896;2023-06-26T02:01:41;13.10;99.90
21115;DHT22;10715;48.546;9.896;2023-06-26T02:04:06;13.00;99.90
21115;DHT22;10715;48.546;9.896;2023-06-26T02:06:32;13.00;99.90
21115;DHT22;10715;48.546;9.896;2023-06-26T02:08:58;13.00;99.90
21115;DHT22;10715;48.546;9.896;2023-06-26T02:11:24;13.00;99.90
21115;DHT22;10715;48.546;9.896;2023-06-26T02:13:49;12.90;99.90
21115;DHT22;10715;48.546;9.896;2023-06-26T02:16:15;12.90;99.90
21115;DHT22;10715;48.546;9.896;2023-06-26T02:18:41;12.80;99.90
21115;DHT22;10715;48.546;9.896;2023-06-26T02:21:09;12.80;99.90
21115;DHT22;10715;48.546;9.896;2023-06-26T02:23:35;12.80;99.90
21115;DHT22;10715;48.546;9.896;2023-06-26T02:26:01;12.70;99.90
21115;DHT22;10715;48.546;9.896;2023-06-26T02:28:26;12.70;99.90
21115;DHT22;10715;48.546;9.896;2023-06-26T02:30:52;12.70;99.90
21115;DHT22;10715;48.546;9.896;2023-06-26T02:33:18;12.70;99.90
21115;DHT22;10715;48.546;9.896;2023-06-26T02:35:43;12.60;99.90
21115;DHT22;10715;48.546;9.896;2023-06-26T02:38:09;12.60;99.90
21115;DHT22;10715;48.546;9.896;2023-06-26T02:40:35;12.50;99.90
21115;DHT22;10715;48.546;9.896;2023-06-26T02:43:01;12.60;99.90
21115;DHT22;10715;48.546;9.896;2023-06-26T02:45:26;12.50;99.90
21115;DHT22;10715;48.546;9.896;2023-06-26T02:47:52;12.50;99.90
21115;DHT22;10715;48.546;9.896;2023-06-26T02:50:18;12.50;99.90
21115;DHT22;10715;48.546;9.896;2023-06-26T02:52:43;12.50;99.90
21115;DHT22;10715;48.546;9.896;2023-06-26T02:55:09;12.40;99.90
21115;DHT22;10715;48.546;9.896;2023-06-26T02:57:35;12.40;99.90
21115;DHT22;10715;48.546;9.896;2023-06-26T03:00:00;12.40;99.90
21115;DHT22;10715;48.546;9.896;2023-06-26T03:02:26;12.30;99.90
21115;DHT22;10715;48.546;9.896;2023-06-26T03:04:52;12.30;99.90
21115;DHT22;10715;48.546;9.896;2023-06-26T03:07:18;12.30;99.90
21115;DHT22;10715;48.546;9.896;2023-06-26T03:09:44;12.30;99.90
21115;DHT22;10715;48.546;9.896;2023-06-26T03:12:09;12.30;99.90
21115;DHT22;10715;48.546;9.896;2023-06-26T03:14:35;12.20;99.90
21115;DHT22;10715;48.546;9.896;2023-06-26T03:17:01;12.20;99.90
21115;DHT22;10715;48.546;9.896;2023-06-26T03:19:29;12.20;99.90
21115;DHT22;10715;48.546;9.896;2023-06-26T03:21:55;12.20;99.90
21115;DHT22;10715;48.546;9.896;2023-06-26T03:24:20;12.10;99.90
21115;DHT22;10715;48.546;9.896;2023-06-26T03:26:46;12.20;99.90
21115;DHT22;10715;48.546;9.896;2023-06-26T03:29:12;12.20;99.90
21115;DHT22;10715;48.546;9.896;2023-06-26T03:31:38;12.20;99.90
21115;DHT22;10715;48.546;9.896;2023-06-26T03:34:03;12.10;99.90
21115;DHT22;10715;48.546;9.896;2023-06-26T03:36:29;12.10;99.90
21115;DHT22;10715;48.546;9.896;2023-06-26T03:38:55;12.10;99.90
21115;DHT22;10715;48.546;9.896;2023-06-26T03:41:23;12.10;99.90
21115;DHT22;10715;48.546;9.896;2023-06-26T03:43:49;12.10;99.90
21115;DHT22;10715;48.546;9.896;2023-06-26T03:46:15;12.10;99.90
21115;DHT22;10715;48.546;9.896;2023-06-26T03:48:40;12.10;99.90
21115;DHT22;10715;48.546;9.896;2023-06-26T03:51:07;12.00;99.90
21115;DHT22;10715;48.546;9.896;2023-06-26T03:53:33;12.00;99.90
21115;DHT22;10715;48.546;9.896;2023-06-26T03:55:59;12.00;99.90
21115;DHT22;10715;48.546;9.896;2023-06-26T03:58:25;12.00;99.90
21115;DHT22;10715;48.546;9.896;2023-06-26T04:00:51;12.00;99.90
21115;DHT22;10715;48.546;9.896;2023-06-26T04:03:17;12.00;99.90
21115;DHT22;10715;48.546;9.896;2023-06-26T04:05:42;12.00;99.90
21115;DHT22;10715;48.546;9.896;2023-06-26T04:08:08;12.00;99.90
21115;DHT22;10715;48.546;9.896;2023-06-26T04:10:34;12.00;99.90
21115;DHT22;10715;48.546;9.896;2023-06-26T04:13:02;12.10;99.90
21115;DHT22;10715;48.546;9.896;2023-06-26T04:15:28;12.10;99.90
21115;DHT22;10715;48.546;9.896;2023-06-26T04:17:53;12.10;99.90
21115;DHT22;10715;48.546;9.896;2023-06-26T04:20:19;12.10;99.90
21115;DHT22;10715;48.546;9.896;2023-06-26T04:22:45;12.10;99.90
21115;DHT22;10715;48.546;9.896;2023-06-26T04:25:10;12.10;99.90
21115;DHT22;10715;48.546;9.896;2023-06-26T04:27:39;12.10;99.90
21115;DHT22;10715;48.546;9.896;2023-06-26T04:30:06;12.10;99.90
21115;DHT22;10715;48.546;9.896;2023-06-26T04:32:32;12.10;99.90
21115;DHT22;10715;48.546;9.896;2023-06-26T04:34:58;12.20;99.90
21115;DHT22;10715;48.546;9.896;2023-06-26T04:37:23;12.20;99.90
21115;DHT22;10715;48.546;9.896;2023-06-26T04:39:50;12.20;99.90
21115;DHT22;10715;48.546;9.896;2023-06-26T04:42:16;12.30;99.90
21115;DHT22;10715;48.546;9.896;2023-06-26T04:44:42;12.30;99.90
21115;DHT22;10715;48.546;9.896;2023-06-26T04:47:08;12.30;99.90
21115;DHT22;10715;48.546;9.896;2023-06-26T04:49:34;12.40;99.90
21115;DHT22;10715;48.546;9.896;2023-06-26T04:52:00;12.50;99.90
21115;DHT22;10715;48.546;9.896;2023-06-26T04:54:26;12.50;99.90
21115;DHT22;10715;48.546;9.896;2023-06-26T04:56:53;12.50;99.90
21115;DHT22;10715;48.546;9.896;2023-06-26T04:59:19;12.50;99.90
21115;DHT22;10715;48.546;9.896;2023-06-26T05:01:44;12.60;99.90
21115;DHT22;10715;48.546;9.896;2023-06-26T05:04:14;12.60;99.90
21115;DHT22;10715;48.546;9.896;2023-06-26T05:06:43;12.70;99.90
21115;DHT22;10715;48.546;9.896;2023-06-26T05:09:09;12.70;99.90
21115;DHT22;10715;48.546;9.896;2023-06-26T05:11:36;12.80;99.90
21115;DHT22;10715;48.546;9.896;2023-06-26T05:14:02;12.90;99.90
21115;DHT22;10715;48.546;9.896;2023-06-26T05:16:28;13.00;99.90
21115;DHT22;10715;48.546;9.896;2023-06-26T05:18:53;13.00;99.90
21115;DHT22;10715;48.546;9.896;2023-06-26T05:21:20;13.10;99.90
21115;DHT22;10715;48.546;9.896;2023-06-26T05:23:46;13.20;99.90
21115;DHT22;10715;48.546;9.896;2023-06-26T05:26:12;13.30;99.90
21115;DHT22;10715;48.546;9.896;2023-06-26T05:28:39;13.30;99.90
21115;DHT22;10715;48.546;9.896;2023-06-26T05:31:05;13.50;99.90
21115;DHT22;10715;48.546;9.896;2023-06-26T05:33:34;13.50;99.90
21115;DHT22;10715;48.546;9.896;2023-06-26T05:36:02;13.70;99.90
21115;DHT22;10715;48.546;9.896;2023-06-26T05:38:29;13.80;99.90
21115;DHT22;10715;48.546;9.896;2023-06-26T05:40:55;13.90;99.90
21115;DHT22;10715;48.546;9.896;2023-06-26T05:43:21;14.10;99.90
21115;DHT22;10715;48.546;9.896;2023-06-26T05:45:48;14.20;99.90
21115;DHT22;10715;48.546;9.896;2023-06-26T05:48:14;14.40;99.90
21115;DHT22;10715;48.546;9.896;2023-06-26T05:50:40;14.60;99.90
21115;DHT22;10715;48.546;9.896;2023-06-26T05:53:07;14.80;99.90
21115;DHT22;10715;48.546;9.896;2023-06-26T05:55:33;14.90;99.90
21115;DHT22;10715;48.546;9.896;2023-06-26T05:58:00;15.20;99.90
21115;DHT22;10715;48.546;9.896;2023-06-26T06:00:27;15.40;99.90
21115;DHT22;10715;48.546;9.896;2023-06-26T06:02:53;15.60;99.90
21115;DHT22;10715;48.546;9.896;2023-06-26T06:05:20;15.90;99.90
21115;DHT22;10715;48.546;9.896;2023-06-26T06:07:47;16.10;99.90
21115;DHT22;10715;48.546;9.896;2023-06-26T06:10:13;16.40;99.90
21115;DHT22;10715;48.546;9.896;2023-06-26T06:12:38;16.70;99.90
21115;DHT22;10715;48.546;9.896;2023-06-26T06:15:05;17.20;99.90
21115;DHT22;10715;48.546;9.896;2023-06-26T06:17:31;17.60;99.90
21115;DHT22;10715;48.546;9.896;2023-06-26T06:19:56;18.00;99.90
21115;DHT22;10715;48.546;9.896;2023-06-26T06:22:22;18.40;99.90
21115;DHT22;10715;48.546;9.896;2023-06-26T06:24:51;18.80;99.90
21115;DHT22;10715;48.546;9.896;2023-06-26T06:27:17;19.20;99.90
21115;DHT22;10715;48.546;9.896;2023-06-26T06:29:43;19.60;99.90
21115;DHT22;10715;48.546;9.896;2023-06-26T06:32:08;20.00;99.90
21115;DHT22;10715;48.546;9.896;2023-06-26T06:34:34;20.40;99.90
21115;DHT22;10715;48.546;9.896;2023-06-26T06:37:00;20.80;99.90
21115;DHT22;10715;48.546;9.896;2023-06-26T06:39:26;21.20;99.90
21115;DHT22;10715;48.546;9.896;2023-06-26T06:41:52;21.30;99.90
21115;DHT22;10715;48.546;9.896;2023-06-26T06:44:18;21.50;99.90
21115;DHT22;10715;48.546;9.896;2023-06-26T06:46:43;21.60;99.90
21115;DHT22;10715;48.546;9.896;2023-06-26T06:49:09;21.70;99.90
21115;DHT22;10715;48.546;9.896;2023-06-26T06:51:35;21.80;99.90
21115;DHT22;10715;48.546;9.896;2023-06-26T06:54:02;21.80;99.90
21115;DHT22;10715;48.546;9.896;2023-06-26T06:56:27;21.90;99.90
21115;DHT22;10715;48.546;9.896;2023-06-26T06:58:53;22.10;99.90
21115;DHT22;10715;48.546;9.896;2023-06-26T07:01:19;22.20;99.90
21115;DHT22;10715;48.546;9.896;2023-06-26T07:03:45;22.30;99.90
21115;DHT22;10715;48.546;9.896;2023-06-26T07:06:11;22.30;99.90
21115;DHT22;10715;48.546;9.896;2023-06-26T07:08:36;22.30;99.90
21115;DHT22;10715;48.546;9.896;2023-06-26T07:11:02;22.40;99.90
21115;DHT22;10715;48.546;9.896;2023-06-26T07:13:28;22.60;99.90
21115;DHT22;10715;48.546;9.896;2023-06-26T07:15:55;22.70;99.90
21115;DHT22;10715;48.546;9.896;2023-06-26T07:18:20;22.90;99.90
21115;DHT22;10715;48.546;9.896;2023-06-26T07:20:46;23.10;99.90
21115;DHT22;10715;48.546;9.896;2023-06-26T07:23:12;23.20;99.90
21115;DHT22;10715;48.546;9.896;2023-06-26T07:25:37;23.40;99.90
21115;DHT22;10715;48.546;9.896;2023-06-26T07:28:05;23.60;99.90
21115;DHT22;10715;48.546;9.896;2023-06-26T07:30:34;23.80;99.90
21115;DHT22;10715;48.546;9.896;2023-06-26T07:33:00;24.00;99.90
21115;DHT22;10715;48.546;9.896;2023-06-26T07:35:26;24.00;99.90
21115;DHT22;10715;48.546;9.896;2023-06-26T07:37:53;24.10;99.90
21115;DHT22;10715;48.546;9.896;2023-06-26T07:40:18;24.10;99.90
21115;DHT22;10715;48.546;9.896;2023-06-26T07:42:44;24.10;99.90
21115;DHT22;10715;48.546;9.896;2023-06-26T07:45:10;24.20;99.90
21115;DHT22;10715;48.546;9.896;2023-06-26T07:47:41;24.30;99.90
21115;DHT22;10715;48.546;9.896;2023-06-26T07:50:07;24.30;99.90
21115;DHT22;10715;48.546;9.896;2023-06-26T07:52:33;24.30;99.90
21115;DHT22;10715;48.546;9.896;2023-06-26T07:54:59;24.40;99.90
21115;DHT22;10715;48.546;9.896;2023-06-26T07:57:24;24.40;99.90
21115;DHT22;10715;48.546;9.896;2023-06-26T07:59:50;24.40;99.90
21115;DHT22;10715;48.546;9.896;2023-06-26T08:02:16;24.60;99.90
21115;DHT22;10715;48.546;9.896;2023-06-26T08:04:43;24.60;99.90
21115;DHT22;10715;48.546;9.896;2023-06-26T08:07:09;24.70;99.90
21115;DHT22;10715;48.546;9.896;2023-06-26T08:09:35;24.80;99.90
21115;DHT22;10715;48.546;9.896;2023-06-26T08:12:01;24.80;99.90
21115;DHT22;10715;48.546;9.896;2023-06-26T08:14:27;24.90;99.90
21115;DHT22;10715;48.546;9.896;2023-06-26T08:16:52;25.00;99.90
21115;DHT22;10715;48.546;9.896;2023-06-26T08:19:18;25.00;99.90
21115;DHT22;10715;48.546;9.896;2023-06-26T08:21:45;25.10;99.90
21115;DHT22;10715;48.546;9.896;2023-06-26T08:24:11;25.10;99.90
21115;DHT22;10715;48.546;9.896;2023-06-26T08:26:38;25.10;99.90
21115;DHT22;10715;48.546;9.896;2023-06-26T08:29:05;25.20;99.90
21115;DHT22;10715;48.546;9.896;2023-06-26T08:31:37;25.20;99.90
21115;DHT22;10715;48.546;9.896;2023-06-26T08:34:05;25.30;99.90
21115;DHT22;10715;48.546;9.896;2023-06-26T08:36:31;25.40;99.90
21115;DHT22;10715;48.546;9.896;2023-06-26T08:38:57;25.50;99.90
21115;DHT22;10715;48.546;9.896;2023-06-26T08:41:23;25.60;99.90
21115;DHT22;10715;48.546;9.896;2023-06-26T08:43:49;25.60;99.90
21115;DHT22;10715;48.546;9.896;2023-06-26T08:46:19;25.60;99.90
21115;DHT22;10715;48.546;9.896;2023-06-26T08:49:17;25.60;99.90
21115;DHT22;10715;48.546;9.896;2023-06-26T08:51:49;25.60;99.90
21115;DHT22;10715;48.546;9.896;2023-06-26T08:54:17;25.70;99.70
21115;DHT22;10715;48.546;9.896;2023-06-26T08:56:47;25.70;99.70
21115;DHT22;10715;48.546;9.896;2023-06-26T08:59:14;25.70;98.80
21115;DHT22;10715;48.546;9.896;2023-06-26T09:01:41;25.70;99.20
21115;DHT22;10715;48.546;9.896;2023-06-26T09:04:07;25.70;98.60
21115;DHT22;10715;48.546;9.896;2023-06-26T09:06:33;25.80;99.90
21115;DHT22;10715;48.546;9.896;2023-06-26T09:08:59;25.90;99.00
21115;DHT22;10715;48.546;9.896;2023-06-26T09:11:24;25.90;99.30
21115;DHT22;10715;48.546;9.896;2023-06-26T09:13:51;25.90;98.60
21115;DHT22;10715;48.546;9.896;2023-06-26T09:16:17;26.00;99.30
21115;DHT22;10715;48.546;9.896;2023-06-26T09:18:44;26.00;98.60
21115;DHT22;10715;48.546;9.896;2023-06-26T09:21:11;26.00;99.80
21115;DHT22;10715;48.546;9.896;2023-06-26T09:23:39;26.00;99.90
21115;DHT22;10715;48.546;9.896;2023-06-26T09:26:07;26.10;98.70
21115;DHT22;10715;48.546;9.896;2023-06-26T09:28:34;26.10;98.90
21115;DHT22;10715;48.546;9.896;2023-06-26T09:31:02;26.10;98.00
21115;DHT22;10715;48.546;9.896;2023-06-26T09:33:34;26.20;97.60
21115;DHT22;10715;48.546;9.896;2023-06-26T09:36:01;26.20;96.90
21115;DHT22;10715;48.546;9.896;2023-06-26T09:38:28;26.20;97.20
21115;DHT22;10715;48.546;9.896;2023-06-26T09:40:54;26.10;96.70
21115;DHT22;10715;48.546;9.896;2023-06-26T09:43:20;26.20;96.60
21115;DHT22;10715;48.546;9.896;2023-06-26T09:45:46;26.20;96.50
21115;DHT22;10715;48.546;9.896;2023-06-26T09:48:14;26.30;97.30
21115;DHT22;10715;48.546;9.896;2023-06-26T09:50:41;26.30;96.10
21115;DHT22;10715;48.546;9.896;2023-06-26T09:53:11;26.30;97.00
21115;DHT22;10715;48.546;9.896;2023-06-26T09:55:39;26.40;96.50
21115;DHT22;10715;48.546;9.896;2023-06-26T09:58:10;26.40;96.60
21115;DHT22;10715;48.546;9.896;2023-06-26T10:00:40;26.50;96.90
21115;DHT22;10715;48.546;9.896;2023-06-26T10:03:07;26.50;95.20
21115;DHT22;10715;48.546;9.896;2023-06-26T10:05:33;26.50;96.10
21115;DHT22;10715;48.546;9.896;2023-06-26T10:08:00;26.60;96.40
21115;DHT22;10715;48.546;9.896;2023-06-26T10:10:27;26.60;95.80
21115;DHT22;10715;48.546;9.896;2023-06-26T10:12:59;26.70;95.50
21115;DHT22;10715;48.546;9.896;2023-06-26T10:15:27;26.70;94.90
21115;DHT22;10715;48.546;9.896;2023-06-26T10:17:56;26.70;94.70
21115;DHT22;10715;48.546;9.896;2023-06-26T10:20:22;26.70;94.30
21115;DHT22;10715;48.546;9.896;2023-06-26T10:22:49;26.70;95.00
21115;DHT22;10715;48.546;9.896;2023-06-26T10:25:19;26.80;94.80
21115;DHT22;10715;48.546;9.896;2023-06-26T10:27:49;26.80;95.80
21115;DHT22;10715;48.546;9.896;2023-06-26T10:30:19;26.80;95.60
21115;DHT22;10715;48.546;9.896;2023-06-26T10:32:46;26.80;95.70
21115;DHT22;10715;48.546;9.896;2023-06-26T10:35:13;26.90;96.10
21115;DHT22;10715;48.546;9.896;2023-06-26T10:40:09;26.90;95.70
21115;DHT22;10715;48.546;9.896;2023-06-26T10:42:36;27.00;96.10
21115;DHT22;10715;48.546;9.896;2023-06-26T10:45:23;27.00;95.50
21115;DHT22;10715;48.546;9.896;2023-06-26T10:47:53;27.10;97.10
21115;DHT22;10715;48.546;9.896;2023-06-26T10:50:27;27.20;96.30
21115;DHT22;10715;48.546;9.896;2023-06-26T10:53:24;27.20;95.60
21115;DHT22;10715;48.546;9.896;2023-06-26T10:56:01;27.30;94.30
21115;DHT22;10715;48.546;9.896;2023-06-26T11:03:43;27.50;95.10
21115;DHT22;10715;48.546;9.896;2023-06-26T11:06:13;27.50;94.00
21115;DHT22;10715;48.546;9.896;2023-06-26T11:11:16;27.60;94.90
21115;DHT22;10715;48.546;9.896;2023-06-26T11:13:44;27.60;94.60
21115;DHT22;10715;48.546;9.896;2023-06-26T11:16:12;27.70;94.20
21115;DHT22;10715;48.546;9.896;2023-06-26T11:18:38;27.70;93.80
21115;DHT22;10715;48.546;9.896;2023-06-26T11:21:11;27.70;95.20
21115;DHT22;10715;48.546;9.896;2023-06-26T11:23:39;27.70;94.00
21115;DHT22;10715;48.546;9.896;2023-06-26T11:26:19;27.70;94.60
21115;DHT22;10715;48.546;9.896;2023-06-26T11:28:56;27.70;93.70
21115;DHT22;10715;48.546;9.896;2023-06-26T11:34:07;27.60;94.10
21115;DHT22;10715;48.546;9.896;2023-06-26T11:36:40;27.60;94.90
21115;DHT22;10715;48.546;9.896;2023-06-26T11:39:07;27.60;95.70
21115;DHT22;10715;48.546;9.896;2023-06-26T11:41:34;27.60;97.00
21115;DHT22;10715;48.546;9.896;2023-06-26T11:44:01;27.70;95.70
21115;DHT22;10715;48.546;9.896;2023-06-26T11:46:27;27.70;95.30
21115;DHT22;10715;48.546;9.896;2023-06-26T11:48:54;27.70;95.30
21115;DHT22;10715;48.546;9.896;2023-06-26T11:51:20;27.70;95.10
21115;DHT22;10715;48.546;9.896;2023-06-26T11:53:46;27.70;96.10
21115;DHT22;10715;48.546;9.896;2023-06-26T11:56:15;27.70;96.00
21115;DHT22;10715;48.546;9.896;2023-06-26T12:01:43;27.80;95.50
21115;DHT22;10715;48.546;9.896;2023-06-26T12:04:14;27.80;95.40
21115;DHT22;10715;48.546;9.896;2023-06-26T12:06:50;27.90;96.30
21115;DHT22;10715;48.546;9.896;2023-06-26T12:09:18;27.90;95.50
21115;DHT22;10715;48.546;9.896;2023-06-26T12:11:46;27.90;95.40
21115;DHT22;10715;48.546;9.896;2023-06-26T12:14:14;27.80;94.30
21115;DHT22;10715;48.546;9.896;2023-06-26T12:16:40;27.70;94.90
21115;DHT22;10715;48.546;9.896;2023-06-26T12:19:07;27.70;94.80
21115;DHT22;10715;48.546;9.896;2023-06-26T12:24:02;27.50;94.70
21115;DHT22;10715;48.546;9.896;2023-06-26T12:26:28;27.50;95.50
21115;DHT22;10715;48.546;9.896;2023-06-26T12:29:05;27.40;95.50
21115;DHT22;10715;48.546;9.896;2023-06-26T12:31:32;27.30;95.00
21115;DHT22;10715;48.546;9.896;2023-06-26T12:33:58;27.20;95.50
21115;DHT22;10715;48.546;9.896;2023-06-26T12:36:23;27.20;96.60
21115;DHT22;10715;48.546;9.896;2023-06-26T12:38:52;27.20;96.00
21115;DHT22;10715;48.546;9.896;2023-06-26T12:41:18;27.30;96.30
21115;DHT22;10715;48.546;9.896;2023-06-26T12:43:46;27.30;96.80
21115;DHT22;10715;48.546;9.896;2023-06-26T12:46:12;27.30;96.80
21115;DHT22;10715;48.546;9.896;2023-06-26T12:48:42;27.30;96.70
21115;DHT22;10715;48.546;9.896;2023-06-26T12:51:17;27.30;96.10
21115;DHT22;10715;48.546;9.896;2023-06-26T12:53:43;27.40;96.30
21115;DHT22;10715;48.546;9.896;2023-06-26T12:56:09;27.40;96.90
21115;DHT22;10715;48.546;9.896;2023-06-26T12:58:37;27.40;96.40
21115;DHT22;10715;48.546;9.896;2023-06-26T13:01:04;27.50;97.70
21115;DHT22;10715;48.546;9.896;2023-06-26T13:03:31;27.50;96.00
21115;DHT22;10715;48.546;9.896;2023-06-26T13:05:57;27.50;96.40
21115;DHT22;10715;48.546;9.896;2023-06-26T13:08:23;27.50;95.30
21115;DHT22;10715;48.546;9.896;2023-06-26T13:10:48;27.60;96.00
21115;DHT22;10715;48.546;9.896;2023-06-26T13:13:14;27.60;95.60
21115;DHT22;10715;48.546;9.896;2023-06-26T13:15:40;27.60;96.80
21115;DHT22;10715;48.546;9.896;2023-06-26T13:18:06;27.60;95.90
21115;DHT22;10715;48.546;9.896;2023-06-26T13:20:31;27.70;95.60
21115;DHT22;10715;48.546;9.896;2023-06-26T13:22:57;27.60;96.20
21115;DHT22;10715;48.546;9.896;2023-06-26T13:25:23;27.60;95.70
21115;DHT22;10715;48.546;9.896;2023-06-26T13:27:48;27.60;96.00
21115;DHT22;10715;48.546;9.896;2023-06-26T13:30:17;27.60;96.50
21115;DHT22;10715;48.546;9.896;2023-06-26T13:32:43;27.60;96.70
21115;DHT22;10715;48.546;9.896;2023-06-26T13:35:09;27.50;97.10
21115;DHT22;10715;48.546;9.896;2023-06-26T13:37:40;27.50;98.20
21115;DHT22;10715;48.546;9.896;2023-06-26T13:40:06;27.40;99.10
21115;DHT22;10715;48.546;9.896;2023-06-26T13:42:32;27.30;98.80
21115;DHT22;10715;48.546;9.896;2023-06-26T13:44:59;27.30;98.30
21115;DHT22;10715;48.546;9.896;2023-06-26T13:47:24;27.20;98.90
21115;DHT22;10715;48.546;9.896;2023-06-26T13:49:50;27.20;98.40
21115;DHT22;10715;48.546;9.896;2023-06-26T13:52:16;27.20;99.00
21115;DHT22;10715;48.546;9.896;2023-06-26T13:54:41;27.20;99.30
21115;DHT22;10715;48.546;9.896;2023-06-26T13:57:08;27.20;99.70
21115;DHT22;10715;48.546;9.896;2023-06-26T13:59:37;27.10;99.70
21115;DHT22;10715;48.546;9.896;2023-06-26T14:02:03;27.10;99.90
21115;DHT22;10715;48.546;9.896;2023-06-26T14:04:30;27.10;99.90
21115;DHT22;10715;48.546;9.896;2023-06-26T14:06:55;27.10;99.90
21115;DHT22;10715;48.546;9.896;2023-06-26T14:09:21;27.10;99.90
21115;DHT22;10715;48.546;9.896;2023-06-26T14:11:47;27.10;99.90
21115;DHT22;10715;48.546;9.896;2023-06-26T14:14:13;27.20;99.90
21115;DHT22;10715;48.546;9.896;2023-06-26T14:16:39;27.20;99.90
21115;DHT22;10715;48.546;9.896;2023-06-26T14:19:07;27.20;99.90
21115;DHT22;10715;48.546;9.896;2023-06-26T14:21:34;27.30;99.90
21115;DHT22;10715;48.546;9.896;2023-06-26T14:24:00;27.30;99.90
21115;DHT22;10715;48.546;9.896;2023-06-26T14:26:25;27.40;99.90
21115;DHT22;10715;48.546;9.896;2023-06-26T14:28:51;27.40;99.90
21115;DHT22;10715;48.546;9.896;2023-06-26T14:31:17;27.40;99.90
21115;DHT22;10715;48.546;9.896;2023-06-26T14:33:43;27.40;99.10
21115;DHT22;10715;48.546;9.896;2023-06-26T14:36:08;27.30;99.90
21115;DHT22;10715;48.546;9.896;2023-06-26T14:38:34;27.30;99.90
21115;DHT22;10715;48.546;9.896;2023-06-26T14:41:00;27.30;99.40
21115;DHT22;10715;48.546;9.896;2023-06-26T14:43:25;27.40;99.90
21115;DHT22;10715;48.546;9.896;2023-06-26T14:45:51;27.40;99.90
21115;DHT22;10715;48.546;9.896;2023-06-26T14:48:17;27.40;99.80
21115;DHT22;10715;48.546;9.896;2023-06-26T14:50:44;27.40;99.90
21115;DHT22;10715;48.546;9.896;2023-06-26T14:53:10;27.40;99.90
21115;DHT22;10715;48.546;9.896;2023-06-26T14:55:36;27.40;99.80
21115;DHT22;10715;48.546;9.896;2023-06-26T14:58:01;27.40;99.90
21115;DHT22;10715;48.546;9.896;2023-06-26T15:00:27;27.30;99.90
21115;DHT22;10715;48.546;9.896;2023-06-26T15:02:53;27.30;99.90
21115;DHT22;10715;48.546;9.896;2023-06-26T15:05:20;27.40;99.90
21115;DHT22;10715;48.546;9.896;2023-06-26T15:07:47;27.30;99.50
21115;DHT22;10715;48.546;9.896;2023-06-26T15:10:12;27.30;99.50
21115;DHT22;10715;48.546;9.896;2023-06-26T15:12:38;27.30;99.90
21115;DHT22;10715;48.546;9.896;2023-06-26T15:15:04;27.20;99.40
21115;DHT22;10715;48.546;9.896;2023-06-26T15:17:33;27.30;99.60
21115;DHT22;10715;48.546;9.896;2023-06-26T15:19:59;27.20;99.60
21115;DHT22;10715;48.546;9.896;2023-06-26T15:22:26;27.20;99.90
21115;DHT22;10715;48.546;9.896;2023-06-26T15:24:52;27.20;99.90
21115;DHT22;10715;48.546;9.896;2023-06-26T15:27:18;27.20;99.90
21115;DHT22;10715;48.546;9.896;2023-06-26T15:29:44;27.30;98.80
21115;DHT22;10715;48.546;9.896;2023-06-26T15:32:10;27.30;98.50
21115;DHT22;10715;48.546;9.896;2023-06-26T15:34:36;27.30;98.70
21115;DHT22;10715;48.546;9.896;2023-06-26T15:37:01;27.30;98.30
21115;DHT22;10715;48.546;9.896;2023-06-26T15:39:27;27.30;97.90
21115;DHT22;10715;48.546;9.896;2023-06-26T15:41:53;27.20;97.80
21115;DHT22;10715;48.546;9.896;2023-06-26T15:44:19;27.20;98.00
21115;DHT22;10715;48.546;9.896;2023-06-26T15:46:45;27.20;97.30
21115;DHT22;10715;48.546;9.896;2023-06-26T15:49:11;27.10;96.90
21115;DHT22;10715;48.546;9.896;2023-06-26T15:51:37;27.10;97.40